Time;durP1;ratioP1;P1;durP2;ratioP2;P2;SDS_P1;SDS_P2;PMS_P1;PMS_P2;Temp;Humidity;BMP_temperature;BMP_pressure;BME280_temperature;BME280_humidity;BME280_pressure;Samples;Min_cycle;Max_cycle;Signal;HPM_P1;HPM_P2
2022/01/06 00:01:53;;;;;;;14.63;2.45;;;;;;;4.14;98.19;101656.47;5102540;28;20024;-77
2022/01/06 00:04:18;;;;;;;28.13;2.65;;;;;;;4.13;98.55;101665.97;5109601;28;20427;-78
2022/01/06 00:06:45;;;;;;;28.27;3.20;;;;;;;4.12;98.24;101668.50;5089576;28;20051;-78
2022/01/06 00:09:14;;;;;;;18.42;2.90;;;;;;;4.15;98.26;101661.75;5111373;28;20084;-78
2022/01/06 00:11:40;;;;;;;18.05;2.33;;;;;;;4.19;98.58;101678.44;5113595;28;20023;-78
2022/01/06 00:14:13;;;;;;;18.40;2.88;;;;;;;4.19;98.08;101675.84;5114498;28;20529;-78
2022/01/06 00:17:44;;;;;;;18.98;2.75;;;;;;;4.20;98.00;101683.72;5094822;28;20035;-78
2022/01/06 00:25:01;;;;;;;;;;;;;;;4.15;96.91;101689.50;5117467;28;20051;-78
2022/01/06 00:27:26;;;;;;;20.40;2.97;;;;;;;4.12;96.89;101681.53;5085673;28;19912;-77
2022/01/06 00:29:52;;;;;;;11.05;2.13;;;;;;;4.07;97.07;101682.97;5084650;28;20024;-77
2022/01/06 00:32:17;;;;;;;12.40;2.05;;;;;;;4.01;96.43;101681.81;5099716;28;20399;-78
2022/01/06 00:34:42;;;;;;;14.52;2.40;;;;;;;4.03;95.28;101680.19;5112148;28;20059;-77
2022/01/06 00:37:08;;;;;;;15.60;1.75;;;;;;;4.01;95.76;101676.59;5118738;28;20031;-78
2022/01/06 00:39:33;;;;;;;9.57;1.40;;;;;;;3.94;94.75;101679.66;5096222;28;20028;-78
2022/01/06 00:42:00;;;;;;;23.40;2.15;;;;;;;3.92;95.42;101677.78;5097848;28;20043;-78
2022/01/06 00:44:26;;;;;;;18.80;2.47;;;;;;;3.89;95.02;101675.91;5085077;28;20091;-77
2022/01/06 00:46:52;;;;;;;16.95;2.35;;;;;;;3.85;95.58;101684.34;5089888;28;20420;-77
2022/01/06 00:49:20;;;;;;;13.23;1.88;;;;;;;3.80;95.93;101693.59;5086023;28;20055;-77
2022/01/06 00:51:46;;;;;;;20.90;2.25;;;;;;;3.72;96.22;101694.06;5099106;28;20015;-78
2022/01/06 00:54:11;;;;;;;11.00;1.30;;;;;;;3.71;96.96;101691.38;5091275;28;20505;-77
2022/01/06 00:56:36;;;;;;;11.38;2.33;;;;;;;3.70;96.51;101697.38;5085302;28;20043;-77
2022/01/06 00:59:02;;;;;;;15.32;2.33;;;;;;;3.68;97.23;101701.59;5105206;28;20031;-77
2022/01/06 01:01:27;;;;;;;12.38;2.50;;;;;;;3.64;97.58;101703.13;5115013;27;20114;-77
2022/01/06 01:03:53;;;;;;;11.80;1.75;;;;;;;3.60;98.46;101703.75;5117310;27;20027;-77
2022/01/06 01:06:18;;;;;;;21.17;2.38;;;;;;;3.56;99.15;101706.97;5117646;28;20032;-77
2022/01/06 01:08:44;;;;;;;21.02;2.42;;;;;;;3.54;100.00;101705.97;5108835;28;20364;-78
2022/01/06 01:11:09;;;;;;;16.33;1.60;;;;;;;3.53;99.27;101710.28;5094297;28;20378;-78
2022/01/06 01:13:43;;;;;;;14.57;2.75;;;;;;;3.58;99.40;101710.59;5097190;28;20427;-78
2022/01/06 01:16:21;;;;;;;17.33;2.15;;;;;;;3.60;98.32;101706.34;5104226;28;20020;-78
2022/01/06 01:18:49;;;;;;;20.83;2.78;;;;;;;3.55;98.50;101715.59;5098611;28;20016;-78
2022/01/06 01:21:14;;;;;;;15.00;2.20;;;;;;;3.48;100.00;101723.84;5110283;28;20028;-78
2022/01/06 01:23:41;;;;;;;17.30;2.30;;;;;;;3.42;100.00;101720.88;5108752;28;20084;-78
2022/01/06 01:26:06;;;;;;;13.70;2.25;;;;;;;3.36;100.00;101724.00;5105277;28;20043;-77
2022/01/06 01:28:42;;;;;;;18.23;2.88;;;;;;;3.35;100.00;101725.72;5080483;28;20031;-78
2022/01/06 01:33:49;;;;;;;18.67;1.75;;;;;;;3.20;100.00;101724.78;5114517;28;20039;-78
2022/01/06 01:36:15;;;;;;;13.32;2.47;;;;;;;3.14;100.00;101727.03;5098100;28;20027;-78
2022/01/06 01:38:41;;;;;;;14.18;1.67;;;;;;;3.10;100.00;101736.31;5116688;28;20065;-78
2022/01/06 01:41:08;;;;;;;16.90;2.38;;;;;;;3.08;100.00;101744.84;5087088;28;20032;-78
2022/01/06 01:43:34;;;;;;;13.43;2.08;;;;;;;3.04;100.00;101742.06;5105944;28;20047;-79
2022/01/06 01:46:08;;;;;;;25.80;3.55;;;;;;;3.02;100.00;101748.84;5105057;28;20039;-78
2022/01/06 01:48:36;;;;;;;13.00;1.98;;;;;;;2.99;100.00;101748.66;5082750;28;20035;-78
2022/01/06 01:51:02;;;;;;;14.10;2.30;;;;;;;3.00;100.00;101750.47;5095792;28;20122;-78
2022/01/06 01:53:28;;;;;;;23.35;2.15;;;;;;;3.03;100.00;101757.56;5096575;28;20059;-78
2022/01/06 01:55:53;;;;;;;24.13;3.63;;;;;;;3.03;100.00;101766.25;5116786;28;20040;-78
2022/01/06 01:58:20;;;;;;;14.57;2.45;;;;;;;3.03;100.00;101766.25;5115916;28;20501;-78
2022/01/06 02:00:46;;;;;;;13.35;2.15;;;;;;;2.96;100.00;101756.28;5110012;28;20028;-78
2022/01/06 02:03:11;;;;;;;15.45;2.35;;;;;;;2.94;100.00;101759.59;5078765;28;20437;-78
2022/01/06 02:05:36;;;;;;;14.90;1.95;;;;;;;2.96;100.00;101753.69;5104065;28;20027;-78
2022/01/06 02:08:02;;;;;;;13.23;1.90;;;;;;;2.99;100.00;101759.06;5078805;28;20024;-78
2022/01/06 02:10:29;;;;;;;14.75;2.00;;;;;;;2.97;100.00;101755.50;5110689;28;20076;-78
2022/01/06 02:12:56;;;;;;;11.90;1.77;;;;;;;2.97;100.00;101760.69;5088449;28;20055;-78
2022/01/06 02:15:22;;;;;;;22.52;2.08;;;;;;;2.98;100.00;101771.97;5093868;28;20176;-78
2022/01/06 02:17:50;;;;;;;17.70;2.38;;;;;;;3.01;100.00;101778.28;5089860;28;20039;-78
2022/01/06 02:20:17;;;;;;;19.05;2.30;;;;;;;3.02;100.00;101774.84;5083049;28;20126;-78
2022/01/06 02:22:43;;;;;;;11.27;1.67;;;;;;;3.04;100.00;101778.47;5092077;28;20172;-78
2022/01/06 02:25:19;;;;;;;13.55;3.03;;;;;;;3.06;100.00;101785.47;5087086;28;20066;-78
2022/01/06 02:27:47;;;;;;;11.57;2.42;;;;;;;3.06;100.00;101785.47;5105979;28;20031;-78
2022/01/06 02:30:14;;;;;;;18.33;2.30;;;;;;;3.02;100.00;101787.84;5077221;28;20460;-78
2022/01/06 02:32:40;;;;;;;13.77;2.15;;;;;;;3.01;100.00;101793.88;5085652;28;20028;-78
2022/01/06 02:35:07;;;;;;;18.08;2.90;;;;;;;3.01;100.00;101791.28;5103385;28;20042;-77
2022/01/06 02:37:33;;;;;;;20.08;2.20;;;;;;;3.02;100.00;101794.75;5107487;28;20020;-78
2022/01/06 02:39:59;;;;;;;15.75;2.00;;;;;;;3.08;100.00;101789.97;5091292;28;20398;-77
2022/01/06 02:42:25;;;;;;;17.05;2.42;;;;;;;3.15;100.00;101793.84;5115305;28;20112;-78
2022/01/06 02:44:50;;;;;;;14.68;2.05;;;;;;;3.15;100.00;101797.31;5092667;28;20046;-77
2022/01/06 02:47:15;;;;;;;16.35;2.53;;;;;;;3.24;100.00;101804.78;5097091;28;20036;-78
2022/01/06 02:49:41;;;;;;;17.65;3.95;;;;;;;3.27;100.00;101807.59;5099495;28;20456;-78
2022/01/06 02:52:06;;;;;;;19.42;2.83;;;;;;;3.34;100.00;101808.88;5101980;28;20110;-78
2022/01/06 02:54:31;;;;;;;12.90;1.98;;;;;;;3.44;100.00;101808.63;5109075;28;20031;-77
2022/01/06 02:56:57;;;;;;;22.83;2.38;;;;;;;3.47;100.00;101798.41;5112745;28;20031;-77
2022/01/06 02:59:22;;;;;;;11.90;1.88;;;;;;;3.51;100.00;101813.41;5091047;28;20052;-77
2022/01/06 03:01:48;;;;;;;13.35;1.27;;;;;;;3.61;100.00;101811.34;5079953;28;20027;-77
2022/01/06 03:04:13;;;;;;;14.05;2.33;;;;;;;3.66;100.00;101807.31;5090903;28;20023;-77
2022/01/06 03:06:40;;;;;;;8.30;1.58;;;;;;;3.77;100.00;101793.25;5110878;28;20149;-77
2022/01/06 03:09:07;;;;;;;11.88;1.67;;;;;;;3.87;98.17;101781.69;5113486;28;20042;-77
2022/01/06 03:11:33;;;;;;;5.53;1.00;;;;;;;3.87;96.68;101781.69;5096356;28;20515;-77
2022/01/06 03:14:00;;;;;;;5.57;1.13;;;;;;;3.89;93.68;101780.03;5103777;28;20036;-77
2022/01/06 03:16:26;;;;;;;6.80;1.00;;;;;;;3.86;94.35;101775.56;5115326;28;20028;-78
2022/01/06 03:18:54;;;;;;;7.82;1.30;;;;;;;3.79;94.11;101786.44;5112612;28;20045;-77
2022/01/06 03:21:19;;;;;;;11.30;1.70;;;;;;;3.77;95.40;101800.16;5083702;28;20085;-78
2022/01/06 03:23:45;;;;;;;9.40;1.73;;;;;;;3.80;98.96;101801.25;5110300;28;20417;-77
2022/01/06 03:26:10;;;;;;;13.18;1.67;;;;;;;3.79;100.00;101803.75;5077016;28;20471;-78
2022/01/06 03:28:36;;;;;;;9.52;1.60;;;;;;;3.74;100.00;101810.38;5069433;28;20043;-78
2022/01/06 03:31:01;;;;;;;11.00;1.90;;;;;;;3.68;100.00;101819.63;5099570;28;20087;-77
2022/01/06 03:33:26;;;;;;;11.70;1.65;;;;;;;3.63;100.00;101828.84;5081486;28;20032;-76
2022/01/06 03:35:52;;;;;;;12.02;1.48;;;;;;;3.55;100.00;101830.09;5078244;28;20028;-76
2022/01/06 03:38:17;;;;;;;19.85;2.13;;;;;;;3.50;100.00;101834.09;5089037;28;20028;-76
2022/01/06 03:40:43;;;;;;;12.07;1.42;;;;;;;3.51;100.00;101833.31;5109278;28;20507;-76
2022/01/06 03:43:09;;;;;;;12.02;2.05;;;;;;;3.54;100.00;101829.22;5088828;28;20052;-76
2022/01/06 03:45:35;;;;;;;12.63;1.50;;;;;;;3.54;100.00;101825.69;5107417;28;20490;-76
2022/01/06 03:48:01;;;;;;;11.48;1.85;;;;;;;3.48;100.00;101836.63;5077000;28;20024;-76
2022/01/06 03:50:27;;;;;;;6.78;1.27;;;;;;;3.43;100.00;101848.47;5090429;28;20027;-76
2022/01/06 03:52:52;;;;;;;13.65;1.55;;;;;;;3.34;100.00;101854.00;5092932;28;20403;-77
2022/01/06 03:55:19;;;;;;;16.85;1.70;;;;;;;3.25;100.00;101848.22;5082206;28;20055;-76
2022/01/06 03:57:46;;;;;;;19.40;1.50;;;;;;;3.18;100.00;101851.25;5110273;28;20031;-77
2022/01/06 04:00:15;;;;;;;15.40;1.73;;;;;;;3.10;100.00;101849.84;5109217;28;20024;-77
2022/01/06 04:02:41;;;;;;;9.30;1.13;;;;;;;3.01;100.00;101851.09;5095103;28;20028;-76
2022/01/06 04:05:07;;;;;;;15.73;1.83;;;;;;;2.92;100.00;101854.81;5101548;28;20036;-76
2022/01/06 04:07:33;;;;;;;12.45;1.20;;;;;;;2.82;100.00;101854.22;5097429;28;20023;-76
2022/01/06 04:09:59;;;;;;;10.13;2.53;;;;;;;2.73;100.00;101855.28;5078347;28;20039;-76
2022/01/06 04:12:24;;;;;;;11.60;1.77;;;;;;;2.70;100.00;101849.09;5109043;28;20083;-76
2022/01/06 04:14:50;;;;;;;13.77;1.73;;;;;;;2.72;100.00;101851.81;5091594;28;20038;-76
2022/01/06 04:17:16;;;;;;;13.32;1.92;;;;;;;2.71;100.00;101855.19;5095173;28;20056;-76
2022/01/06 04:19:41;;;;;;;13.48;2.25;;;;;;;2.72;100.00;101840.53;5106255;28;20028;-76
2022/01/06 04:22:07;;;;;;;12.68;3.60;;;;;;;2.70;100.00;101843.91;5093706;28;20073;-76
2022/01/06 04:24:32;;;;;;;14.52;2.03;;;;;;;2.73;100.00;101852.69;5103346;28;20036;-76
2022/01/06 04:26:58;;;;;;;21.27;2.20;;;;;;;2.76;100.00;101855.50;5089620;28;20028;-76
2022/01/06 04:29:24;;;;;;;16.58;2.42;;;;;;;2.73;100.00;101855.28;5105944;28;20028;-76
2022/01/06 04:31:49;;;;;;;13.40;1.35;;;;;;;2.69;100.00;101857.69;5075827;28;20032;-76
2022/01/06 04:34:14;;;;;;;16.25;1.55;;;;;;;2.59;100.00;101859.59;5110736;28;20016;-76
2022/01/06 04:36:46;;;;;;;15.68;2.05;;;;;;;2.51;100.00;101862.59;5096006;28;20027;-76
2022/01/06 04:39:12;;;;;;;19.05;1.73;;;;;;;2.52;100.00;101863.50;5111805;28;20020;-76
2022/01/06 04:41:37;;;;;;;7.53;1.42;;;;;;;2.59;100.00;101865.72;5096892;28;20280;-76
2022/01/06 04:44:02;;;;;;;18.50;1.75;;;;;;;2.65;100.00;101860.91;5103881;28;20071;-76
2022/01/06 04:46:28;;;;;;;11.40;1.13;;;;;;;2.66;100.00;101861.81;5103982;28;20106;-76
2022/01/06 04:48:53;;;;;;;10.60;1.23;;;;;;;2.67;100.00;101869.72;5110693;28;20047;-76
2022/01/06 04:51:18;;;;;;;13.90;1.45;;;;;;;2.68;100.00;101871.47;5089429;28;20027;-76
2022/01/06 04:53:44;;;;;;;13.23;1.65;;;;;;;2.65;100.00;101863.50;5115021;28;20032;-76
2022/01/06 04:56:09;;;;;;;10.48;1.30;;;;;;;2.66;100.00;101867.00;5116899;28;20050;-75
2022/01/06 04:58:35;;;;;;;17.95;1.33;;;;;;;2.61;100.00;101866.69;5103371;28;20059;-75
2022/01/06 05:01:01;;;;;;;12.90;1.40;;;;;;;2.59;100.00;101864.78;5115931;28;20368;-76
2022/01/06 05:03:26;;;;;;;12.32;1.42;;;;;;;2.56;100.00;101867.19;5113423;28;20035;-75
2022/01/06 05:05:51;;;;;;;7.40;1.30;;;;;;;2.55;100.00;101876.72;5115590;28;20073;-75
2022/01/06 05:08:17;;;;;;;12.60;1.42;;;;;;;2.52;100.00;101884.28;5110072;28;20069;-75
2022/01/06 05:10:42;;;;;;;11.93;1.50;;;;;;;2.46;100.00;101879.56;5093970;28;20026;-75
2022/01/06 05:13:07;;;;;;;15.43;2.38;;;;;;;2.41;100.00;101883.56;5082572;28;20032;-75
2022/01/06 05:15:33;;;;;;;8.73;1.42;;;;;;;2.34;100.00;101882.25;5113573;28;20027;-75
2022/01/06 05:17:58;;;;;;;14.32;1.73;;;;;;;2.27;100.00;101879.16;5113904;28;20110;-76
2022/01/06 05:20:25;;;;;;;13.82;2.00;;;;;;;2.17;100.00;101883.75;5109297;28;20032;-76
2022/01/06 05:22:54;;;;;;;14.82;1.40;;;;;;;2.10;100.00;101891.88;5114916;28;20552;-76
2022/01/06 05:25:25;;;;;;;17.60;2.00;;;;;;;2.08;100.00;101895.22;5113020;28;20085;-76
2022/01/06 05:27:50;;;;;;;14.70;1.40;;;;;;;2.03;100.00;101894.88;5107358;28;20024;-76
2022/01/06 05:30:16;;;;;;;13.40;1.60;;;;;;;1.95;100.00;101888.25;5091576;28;20399;-76
2022/01/06 05:32:41;;;;;;;11.63;1.30;;;;;;;1.88;100.00;101886.94;5096785;28;20036;-75
2022/01/06 05:35:07;;;;;;;14.40;1.20;;;;;;;1.82;100.00;101899.50;5090927;28;20027;-75
2022/01/06 05:37:32;;;;;;;11.27;1.60;;;;;;;1.74;100.00;101890.31;5096254;28;20467;-75
2022/01/06 05:39:57;;;;;;;10.43;1.10;;;;;;;1.69;100.00;101892.56;5109570;28;20044;-76
2022/01/06 05:42:23;;;;;;;7.95;1.63;;;;;;;1.63;100.00;101894.75;5078882;28;20024;-76
2022/01/06 05:44:48;;;;;;;10.75;2.38;;;;;;;1.56;100.00;101890.81;5113149;28;20056;-76
2022/01/06 05:47:14;;;;;;;9.93;1.67;;;;;;;1.51;100.00;101892.19;5091627;28;20055;-75
2022/01/06 05:49:39;;;;;;;11.77;1.48;;;;;;;1.45;100.00;101894.31;5112232;28;20034;-76
2022/01/06 05:52:05;;;;;;;15.10;1.40;;;;;;;1.37;100.00;101900.66;5079027;28;20438;-75
2022/01/06 05:54:30;;;;;;;13.65;1.58;;;;;;;1.31;100.00;101902.03;5091600;28;20031;-75
2022/01/06 05:56:56;;;;;;;7.18;1.20;;;;;;;1.29;100.00;101907.91;5113437;28;20063;-75
2022/01/06 05:59:21;;;;;;;11.68;1.48;;;;;;;1.22;100.00;101906.59;5097089;28;20114;-76
2022/01/06 06:01:46;;;;;;;7.72;1.50;;;;;;;1.18;100.00;101912.31;5112583;28;20395;-75
2022/01/06 06:04:12;;;;;;;8.77;1.45;;;;;;;1.12;100.00;101914.47;5100783;28;20031;-76
2022/01/06 06:06:38;;;;;;;14.32;2.22;;;;;;;1.08;100.00;101912.47;5087768;28;20024;-75
2022/01/06 06:09:04;;;;;;;18.92;2.00;;;;;;;0.97;100.00;101907.38;5104919;28;20098;-75
2022/01/06 06:11:29;;;;;;;8.13;1.42;;;;;;;0.98;100.00;101922.16;5104697;28;20038;-76
2022/01/06 06:13:55;;;;;;;25.67;1.92;;;;;;;0.95;100.00;101926.19;5112014;28;20032;-75
2022/01/06 06:16:20;;;;;;;12.23;1.90;;;;;;;0.92;100.00;101929.47;5095395;28;20084;-75
2022/01/06 06:18:45;;;;;;;12.95;1.90;;;;;;;0.89;100.00;101933.53;5079156;28;20023;-75
2022/01/06 06:21:11;;;;;;;16.42;2.00;;;;;;;0.85;100.00;101929.81;5096996;28;20403;-75
2022/01/06 06:23:36;;;;;;;16.02;2.05;;;;;;;0.83;100.00;101931.41;5114554;28;20024;-75
2022/01/06 06:26:02;;;;;;;10.90;1.80;;;;;;;0.84;100.00;101938.38;5114275;28;20475;-76
2022/01/06 06:28:27;;;;;;;18.83;2.15;;;;;;;0.87;100.00;101937.69;5084464;28;20417;-75
2022/01/06 06:30:52;;;;;;;8.48;1.73;;;;;;;0.77;100.00;101946.50;5090489;28;20385;-75
2022/01/06 06:33:18;;;;;;;11.07;2.60;;;;;;;0.76;100.00;101949.84;5084612;28;20051;-76
2022/01/06 06:35:43;;;;;;;23.10;3.63;;;;;;;0.70;100.00;101955.50;5109093;28;20035;-75
2022/01/06 06:38:08;;;;;;;20.42;4.78;;;;;;;0.69;100.00;101952.78;5101133;28;20052;-75
2022/01/06 06:40:34;;;;;;;8.70;2.30;;;;;;;0.67;100.00;101955.28;5108880;28;20034;-75
2022/01/06 06:43:00;;;;;;;12.40;2.38;;;;;;;0.69;100.00;101957.97;5088684;28;20031;-76
2022/01/06 06:45:25;;;;;;;13.60;2.38;;;;;;;0.72;100.00;101963.38;5113394;28;20028;-75
2022/01/06 06:47:51;;;;;;;20.63;6.45;;;;;;;0.69;100.00;101960.56;5096623;28;20028;-75
2022/01/06 06:50:17;;;;;;;18.88;5.90;;;;;;;0.67;100.00;101966.53;5091416;28;20059;-76
2022/01/06 06:52:43;;;;;;;18.92;4.65;;;;;;;0.66;100.00;101964.75;5088312;28;20028;-76
2022/01/06 06:55:10;;;;;;;17.17;3.80;;;;;;;0.63;100.00;101963.59;5091051;28;20032;-75
2022/01/06 06:57:35;;;;;;;11.60;3.30;;;;;;;0.63;100.00;101963.59;5103374;28;20024;-75
2022/01/06 07:00:03;;;;;;;12.13;4.10;;;;;;;0.63;100.00;101961.00;5114498;28;20071;-75
2022/01/06 07:02:29;;;;;;;10.07;2.75;;;;;;;0.58;100.00;101954.59;5110766;28;20031;-75
2022/01/06 07:04:54;;;;;;;12.07;3.03;;;;;;;0.57;100.00;101961.47;5097674;28;20032;-78
2022/01/06 07:07:19;;;;;;;15.82;2.78;;;;;;;0.56;100.00;101962.25;5108415;28;20039;-75
2022/01/06 07:09:45;;;;;;;14.77;3.10;;;;;;;0.57;100.00;101958.88;5094699;28;20386;-76
2022/01/06 07:12:10;;;;;;;19.92;3.35;;;;;;;0.58;100.00;101965.81;5108891;28;20035;-76
2022/01/06 07:14:35;;;;;;;12.43;2.70;;;;;;;0.58;100.00;101964.94;5108372;28;20124;-76
2022/01/06 07:17:01;;;;;;;6.55;2.40;;;;;;;0.56;100.00;101962.25;5080161;28;20028;-76
2022/01/06 07:19:26;;;;;;;13.65;2.42;;;;;;;0.55;100.00;101969.91;5080012;28;20115;-77
2022/01/06 07:21:54;;;;;;;12.55;2.45;;;;;;;0.56;100.00;101971.72;5083059;28;20023;-76
2022/01/06 07:24:19;;;;;;;17.17;2.90;;;;;;;0.51;100.00;101961.00;5111600;28;20382;-77
2022/01/06 07:26:45;;;;;;;16.67;3.30;;;;;;;0.53;100.00;101969.78;5102322;28;20028;-77
2022/01/06 07:29:10;;;;;;;6.95;2.05;;;;;;;0.50;100.00;101974.72;5081090;28;20121;-76
2022/01/06 07:31:35;;;;;;;12.13;2.55;;;;;;;0.47;100.00;101971.91;5086282;28;20073;-76
2022/01/06 07:34:01;;;;;;;23.00;2.53;;;;;;;0.44;100.00;101987.22;5112530;28;20131;-76
2022/01/06 07:36:26;;;;;;;12.27;2.05;;;;;;;0.40;100.00;101980.00;5102872;28;20091;-76
2022/01/06 07:38:52;;;;;;;11.85;2.60;;;;;;;0.46;100.00;101985.63;5113529;28;20106;-75
2022/01/06 07:41:17;;;;;;;18.63;3.83;;;;;;;0.49;100.00;101988.47;5109544;28;20122;-77
2022/01/06 07:43:42;;;;;;;16.98;3.42;;;;;;;0.48;100.00;101989.25;5092536;28;20040;-76
2022/01/06 07:46:08;;;;;;;14.63;3.55;;;;;;;0.48;100.00;101989.25;5090142;28;20077;-76
2022/01/06 07:48:55;;;;;;;7.68;2.67;;;;;;;0.49;100.00;101991.06;5107107;28;20028;-75
2022/01/06 07:51:22;;;;;;;19.58;4.63;;;;;;;0.45;100.00;101994.22;5087916;28;20031;-76
2022/01/06 07:53:47;;;;;;;13.43;3.40;;;;;;;0.48;100.00;101994.44;5107285;28;20095;-76
2022/01/06 07:56:12;;;;;;;15.55;3.75;;;;;;;0.50;100.00;101996.34;5095405;28;20059;-73
2022/01/06 07:58:38;;;;;;;12.15;3.42;;;;;;;0.51;100.00;101999.84;5105458;28;20031;-76
2022/01/06 08:01:03;;;;;;;18.15;3.00;;;;;;;0.54;100.00;102004.34;5100537;28;20483;-72
2022/01/06 08:03:28;;;;;;;18.85;3.17;;;;;;;0.50;100.00;101996.34;5095238;28;20103;-76
2022/01/06 08:05:54;;;;;;;11.48;2.92;;;;;;;0.51;100.00;101999.84;5077366;28;20032;-76
2022/01/06 08:08:19;;;;;;;13.85;3.97;;;;;;;0.54;100.00;102010.41;5077755;28;20399;-75
2022/01/06 08:10:45;;;;;;;12.48;3.58;;;;;;;0.53;100.00;102008.63;5093235;28;20028;-75
2022/01/06 08:13:10;;;;;;;13.65;3.60;;;;;;;0.58;100.00;102009.88;5074464;28;20457;-74
2022/01/06 08:15:36;;;;;;;12.13;3.58;;;;;;;0.56;100.00;102014.03;5083293;28;20080;-75
2022/01/06 08:18:01;;;;;;;12.95;4.13;;;;;;;0.62;100.00;102011.91;5103229;28;20476;-75
2022/01/06 08:20:26;;;;;;;18.58;3.58;;;;;;;0.66;100.00;102015.63;5104193;28;20038;-75
2022/01/06 08:22:52;;;;;;;13.15;3.85;;;;;;;0.70;100.00;102019.38;5099003;28;20100;-74
2022/01/06 08:25:17;;;;;;;28.25;6.88;;;;;;;0.72;100.00;102018.69;5104020;28;20016;-76
2022/01/06 08:27:43;;;;;;;18.17;4.22;;;;;;;0.78;100.00;102020.84;5109275;28;20115;-75
2022/01/06 08:30:08;;;;;;;14.75;3.75;;;;;;;0.84;100.00;102021.28;5100037;28;20024;-74
2022/01/06 08:32:35;;;;;;;20.13;4.00;;;;;;;0.91;100.00;102023.56;5097521;28;20039;-74
2022/01/06 08:35:00;;;;;;;18.40;4.70;;;;;;;0.99;100.00;102027.63;5100579;28;20040;-75
2022/01/06 08:37:26;;;;;;;17.48;5.32;;;;;;;1.10;100.00;102035.28;5073400;28;20475;-75
2022/01/06 08:39:51;;;;;;;19.65;4.15;;;;;;;1.18;100.00;102034.16;5093168;28;20030;-75
2022/01/06 08:42:16;;;;;;;17.05;4.15;;;;;;;1.29;100.00;102035.88;5109454;28;20039;-75
2022/01/06 08:44:42;;;;;;;22.70;4.97;;;;;;;1.44;100.00;102035.16;5116313;28;20046;-75
2022/01/06 08:47:09;;;;;;;21.60;4.03;;;;;;;1.58;100.00;102037.09;5085259;28;20020;-74
2022/01/06 08:49:35;;;;;;;16.40;3.70;;;;;;;1.73;100.00;102034.69;5104879;28;20047;-73
2022/01/06 08:52:00;;;;;;;10.13;3.60;;;;;;;1.83;100.00;102038.84;5083073;28;20028;-73
2022/01/06 08:54:25;;;;;;;22.15;4.20;;;;;;;1.91;100.00;102037.69;5100880;28;20056;-72
2022/01/06 08:56:51;;;;;;;19.38;3.78;;;;;;;2.01;100.00;102037.56;5078886;28;20040;-73
2022/01/06 08:59:16;;;;;;;21.70;4.07;;;;;;;2.14;100.00;102038.41;5105239;28;20390;-73
2022/01/06 09:01:41;;;;;;;12.15;3.45;;;;;;;2.25;100.00;102036.56;5107304;28;20028;-73
2022/01/06 09:04:07;;;;;;;18.35;3.70;;;;;;;2.36;100.00;102033.00;5097158;28;20547;-72
2022/01/06 09:06:32;;;;;;;15.57;3.60;;;;;;;2.48;100.00;102040.75;5102283;28;20471;-74
2022/01/06 09:08:58;;;;;;;19.33;5.22;;;;;;;2.59;100.00;102038.88;5110192;28;20091;-73
2022/01/06 09:11:23;;;;;;;13.48;3.50;;;;;;;2.67;100.00;102033.44;5084069;28;20031;-73
2022/01/06 09:13:48;;;;;;;20.00;3.75;;;;;;;2.78;100.00;102033.22;5102241;28;20487;-73
2022/01/06 09:16:14;;;;;;;18.48;3.15;;;;;;;2.88;100.00;102038.28;5103104;28;20028;-77
2022/01/06 09:18:41;;;;;;;25.70;3.55;;;;;;;2.95;100.00;102037.88;5097335;28;20031;-70
2022/01/06 09:21:08;;;;;;;15.65;3.60;;;;;;;3.01;100.00;102037.38;5086424;28;20057;-72
2022/01/06 09:23:34;;;;;;;16.00;2.90;;;;;;;3.08;100.00;102029.19;5079132;28;20110;-71
2022/01/06 09:25:59;;;;;;;26.25;5.05;;;;;;;3.14;100.00;102033.91;5091398;28;20127;-71
2022/01/06 09:28:26;;;;;;;15.57;5.55;;;;;;;3.16;100.00;102033.19;5102365;28;20020;-72
2022/01/06 09:30:53;;;;;;;12.43;3.53;;;;;;;3.22;100.00;102037.91;5113055;28;20024;-72
2022/01/06 09:33:19;;;;;;;15.68;3.08;;;;;;;3.33;100.00;102030.81;5106257;28;20046;-72
2022/01/06 09:35:46;;;;;;;25.70;3.08;;;;;;;3.40;100.00;102038.19;5111485;27;20027;-72
2022/01/06 09:38:11;;;;;;;16.35;3.25;;;;;;;3.54;100.00;102031.28;5107293;27;20527;-73
2022/01/06 09:40:40;;;;;;;13.55;2.58;;;;;;;3.68;100.00;102035.66;5096763;28;20020;-73
2022/01/06 09:43:06;;;;;;;16.35;3.10;;;;;;;3.88;100.00;102038.66;5086021;28;20134;-76
2022/01/06 09:45:32;;;;;;;21.02;3.55;;;;;;;4.07;100.00;102034.56;5092838;28;20478;-72
2022/01/06 09:47:58;;;;;;;10.57;2.80;;;;;;;4.32;100.00;102037.00;5112227;28;20028;-72
2022/01/06 09:50:24;;;;;;;10.52;2.83;;;;;;;4.66;100.00;102039.94;5084708;28;20032;-72
2022/01/06 09:52:51;;;;;;;9.38;2.70;;;;;;;5.03;100.00;102043.81;5097080;28;20562;-70
2022/01/06 09:55:16;;;;;;;11.88;2.75;;;;;;;5.47;100.00;102035.06;5082994;28;20024;-72
2022/01/06 09:57:53;;;;;;;18.95;3.10;;;;;;;5.80;100.00;102034.25;5082309;28;20035;-71
2022/01/06 10:00:19;;;;;;;7.32;2.10;;;;;;;5.97;97.48;102023.00;5087141;28;20063;-72
2022/01/06 10:02:53;;;;;;;18.13;3.50;;;;;;;6.25;96.56;102029.72;5104604;28;20053;-72
2022/01/06 10:05:18;;;;;;;;;;;;;;;6.42;95.33;102022.81;5104688;27;20032;-72
2022/01/06 10:07:44;;;;;;;14.45;2.63;;;;;;;6.48;93.81;102022.22;5097037;28;19935;-72
2022/01/06 10:10:12;;;;;;;11.93;3.03;;;;;;;6.69;93.34;102018.09;5093731;28;20055;-72
2022/01/06 10:12:39;;;;;;;11.57;2.67;;;;;;;6.97;91.86;102019.47;5105623;28;20444;-72
2022/01/06 10:15:18;;;;;;;14.05;2.72;;;;;;;6.91;89.78;102017.47;5077812;28;20043;-73
2022/01/06 10:17:45;;;;;;;12.35;2.33;;;;;;;6.90;91.53;102012.16;5102380;27;20023;-72
2022/01/06 10:20:13;;;;;;;12.82;2.95;;;;;;;6.92;91.93;102021.88;5090545;27;20504;-72
2022/01/06 10:22:50;;;;;;;17.95;3.65;;;;;;;6.90;91.68;102017.38;5100495;28;20417;-72
2022/01/06 10:25:17;;;;;;;10.10;2.22;;;;;;;6.65;91.83;102015.25;5087292;28;20035;-71
2022/01/06 10:27:44;;;;;;;15.48;1.92;;;;;;;6.56;93.99;102016.56;5103744;28;20430;-71
2022/01/06 10:30:10;;;;;;;16.42;2.35;;;;;;;6.57;95.48;102025.31;5098452;28;20046;-71
2022/01/06 10:32:38;;;;;;;15.50;2.38;;;;;;;6.53;96.65;102031.19;5106984;28;20024;-72
2022/01/06 10:35:05;;;;;;;10.10;1.92;;;;;;;6.58;97.89;102024.50;5104284;28;20114;-71
2022/01/06 10:37:38;;;;;;;14.48;1.65;;;;;;;6.85;99.76;102029.34;5085188;28;20054;-72
2022/01/06 10:40:13;;;;;;;11.52;1.50;;;;;;;7.01;99.39;102029.31;5084528;28;20020;-72
2022/01/06 10:42:44;;;;;;;7.57;1.38;;;;;;;7.09;99.89;102030.59;5104814;27;20039;-72
2022/01/06 10:45:18;;;;;;;4.95;1.42;;;;;;;7.20;97.36;102031.13;5101555;28;20506;-72
2022/01/06 10:47:44;;;;;;;;;;;;;;;7.27;95.07;102019.25;5085443;28;20047;-73
2022/01/06 10:50:14;;;;;;;8.18;1.45;;;;;;;7.20;93.58;102017.13;5099523;28;19988;-73
2022/01/06 10:52:43;;;;;;;15.35;1.83;;;;;;;6.91;90.38;102007.00;5101102;28;20028;-72
2022/01/06 10:55:09;;;;;;;9.98;1.67;;;;;;;6.86;91.56;102004.97;5086322;28;20502;-72
2022/01/06 10:57:35;;;;;;;10.70;1.92;;;;;;;7.37;92.79;102010.09;5087388;28;20398;-72
2022/01/06 11:00:00;;;;;;;8.02;2.80;;;;;;;8.20;89.86;102005.22;5083318;28;20035;-72
2022/01/06 11:02:25;;;;;;;7.45;1.20;;;;;;;8.49;82.78;101997.75;5085008;28;20476;-73
2022/01/06 11:04:50;;;;;;;8.10;1.50;;;;;;;8.42;82.52;101992.22;5092601;28;20475;-73
2022/01/06 11:07:16;;;;;;;8.63;2.13;;;;;;;8.21;84.38;102001.78;5109627;27;20034;-73
2022/01/06 11:09:46;;;;;;;11.38;1.77;;;;;;;7.56;83.13;101996.16;5100779;28;20509;-71
2022/01/06 11:12:26;;;;;;;6.43;1.08;;;;;;;7.13;84.55;102004.56;5102939;28;20089;-72
2022/01/06 11:14:56;;;;;;;6.53;1.15;;;;;;;6.91;85.88;102009.63;5093251;28;20116;-72
2022/01/06 11:17:23;;;;;;;7.32;2.38;;;;;;;6.71;87.21;102013.81;5085100;28;20043;-73
2022/01/06 11:19:49;;;;;;;10.05;1.63;;;;;;;6.52;87.75;102006.75;5097130;28;20042;-73
2022/01/06 11:22:16;;;;;;;5.40;1.92;;;;;;;6.24;87.44;102009.66;5091016;28;20036;-71
2022/01/06 11:24:52;;;;;;;10.05;1.65;;;;;;;6.12;89.57;102019.44;5107151;28;20051;-73
2022/01/06 11:27:29;;;;;;;9.68;1.38;;;;;;;5.91;90.34;102015.75;5089040;28;20044;-71